sensor_id;sensor_type;location;lat;lon;timestamp;temperature;humidity
27258;DHT22;62045;49.986;8.672;2023-01-28T00:02:50;17.30;47.30
27258;DHT22;62045;49.986;8.672;2023-01-28T00:07:51;17.40;47.30
27258;DHT22;62045;49.986;8.672;2023-01-28T00:12:52;17.30;47.40
27258;DHT22;62045;49.986;8.672;2023-01-28T00:17:55;17.20;47.40
27258;DHT22;62045;49.986;8.672;2023-01-28T00:22:55;17.10;47.60
27258;DHT22;62045;49.986;8.672;2023-01-28T00:27:56;17.00;47.70
27258;DHT22;62045;49.986;8.672;2023-01-28T00:32:58;17.00;48.00
27258;DHT22;62045;49.986;8.672;2023-01-28T00:37:59;17.00;47.90
27258;DHT22;62045;49.986;8.672;2023-01-28T00:43:02;17.00;47.80
27258;DHT22;62045;49.986;8.672;2023-01-28T00:48:04;17.20;47.70
27258;DHT22;62045;49.986;8.672;2023-01-28T00:53:05;17.20;47.50
27258;DHT22;62045;49.986;8.672;2023-01-28T00:58:06;17.30;47.40
27258;DHT22;62045;49.986;8.672;2023-01-28T01:03:08;17.30;47.30
27258;DHT22;62045;49.986;8.672;2023-01-28T01:08:09;17.30;47.40
27258;DHT22;62045;49.986;8.672;2023-01-28T01:13:10;17.20;47.50
27258;DHT22;62045;49.986;8.672;2023-01-28T01:18:12;17.10;47.60
27258;DHT22;62045;49.986;8.672;2023-01-28T01:23:13;17.00;47.80
27258;DHT22;62045;49.986;8.672;2023-01-28T01:28:14;17.00;47.90
27258;DHT22;62045;49.986;8.672;2023-01-28T01:33:16;17.00;48.00
27258;DHT22;62045;49.986;8.672;2023-01-28T01:38:17;17.10;47.80
27258;DHT22;62045;49.986;8.672;2023-01-28T01:43:20;17.20;47.60
27258;DHT22;62045;49.986;8.672;2023-01-28T01:48:27;17.30;47.40
27258;DHT22;62045;49.986;8.672;2023-01-28T01:53:30;17.40;47.40
27258;DHT22;62045;49.986;8.672;2023-01-28T01:58:35;17.30;47.30
27258;DHT22;62045;49.986;8.672;2023-01-28T02:03:46;17.20;47.40
27258;DHT22;62045;49.986;8.672;2023-01-28T02:08:53;17.20;47.50
27258;DHT22;62045;49.986;8.672;2023-01-28T02:13:57;17.00;47.60
27258;DHT22;62045;49.986;8.672;2023-01-28T02:18:59;16.90;47.80
27258;DHT22;62045;49.986;8.672;2023-01-28T02:24:14;16.90;48.00
27258;DHT22;62045;49.986;8.672;2023-01-28T02:29:25;17.00;48.00
27258;DHT22;62045;49.986;8.672;2023-01-28T02:34:35;17.10;47.90
27258;DHT22;62045;49.986;8.672;2023-01-28T02:39:41;17.20;47.60
27258;DHT22;62045;49.986;8.672;2023-01-28T02:44:45;17.30;47.40
27258;DHT22;62045;49.986;8.672;2023-01-28T02:49:49;17.30;47.30
27258;DHT22;62045;49.986;8.672;2023-01-28T02:54:57;17.20;47.40
27258;DHT22;62045;49.986;8.672;2023-01-28T03:00:07;17.20;47.40
27258;DHT22;62045;49.986;8.672;2023-01-28T03:05:14;17.10;47.60
27258;DHT22;62045;49.986;8.672;2023-01-28T03:10:19;17.00;47.70
27258;DHT22;62045;49.986;8.672;2023-01-28T03:15:24;16.90;47.90
27258;DHT22;62045;49.986;8.672;2023-01-28T03:20:28;16.90;47.90
27258;DHT22;62045;49.986;8.672;2023-01-28T03:25:34;17.00;47.80
27258;DHT22;62045;49.986;8.672;2023-01-28T03:30:43;17.10;47.70
27258;DHT22;62045;49.986;8.672;2023-01-28T03:35:49;17.20;47.60
27258;DHT22;62045;49.986;8.672;2023-01-28T03:40:51;17.20;47.40
27258;DHT22;62045;49.986;8.672;2023-01-28T03:45:56;17.20;47.30
27258;DHT22;62045;49.986;8.672;2023-01-28T03:50:57;17.20;47.40
27258;DHT22;62045;49.986;8.672;2023-01-28T03:56:00;17.10;47.50
27258;DHT22;62045;49.986;8.672;2023-01-28T04:01:02;17.00;47.50
27258;DHT22;62045;49.986;8.672;2023-01-28T04:06:04;16.90;47.70
27258;DHT22;62045;49.986;8.672;2023-01-28T04:11:24;16.90;47.80
27258;DHT22;62045;49.986;8.672;2023-01-28T04:16:27;16.90;47.90
27258;DHT22;62045;49.986;8.672;2023-01-28T04:21:28;17.00;47.80
27258;DHT22;62045;49.986;8.672;2023-01-28T04:26:29;17.10;47.60
27258;DHT22;62045;49.986;8.672;2023-01-28T04:31:32;17.20;47.50
27258;DHT22;62045;49.986;8.672;2023-01-28T04:36:49;17.20;47.30
27258;DHT22;62045;49.986;8.672;2023-01-28T04:42:08;17.30;47.40
27258;DHT22;62045;49.986;8.672;2023-01-28T04:47:28;17.20;47.40
27258;DHT22;62045;49.986;8.672;2023-01-28T04:52:59;17.10;47.50
27258;DHT22;62045;49.986;8.672;2023-01-28T04:58:12;17.00;47.60
27258;DHT22;62045;49.986;8.672;2023-01-28T05:03:15;16.90;47.80
27258;DHT22;62045;49.986;8.672;2023-01-28T05:08:16;16.80;48.00
27258;DHT22;62045;49.986;8.672;2023-01-28T05:13:19;16.80;48.40
27258;DHT22;62045;49.986;8.672;2023-01-28T05:18:21;16.90;47.90
27258;DHT22;62045;49.986;8.672;2023-01-28T05:23:35;17.10;47.60
27258;DHT22;62045;49.986;8.672;2023-01-28T05:28:36;17.30;47.30
27258;DHT22;62045;49.986;8.672;2023-01-28T05:33:38;17.40;47.10
27258;DHT22;62045;49.986;8.672;2023-01-28T05:38:42;17.50;46.90
27258;DHT22;62045;49.986;8.672;2023-01-28T05:43:43;17.40;47.00
27258;DHT22;62045;49.986;8.672;2023-01-28T05:49:08;17.40;47.70
27258;DHT22;62045;49.986;8.672;2023-01-28T05:54:26;17.20;47.20
27258;DHT22;62045;49.986;8.672;2023-01-28T05:59:28;17.10;47.40
27258;DHT22;62045;49.986;8.672;2023-01-28T06:04:32;17.00;47.60
27258;DHT22;62045;49.986;8.672;2023-01-28T06:09:33;17.10;47.60
27258;DHT22;62045;49.986;8.672;2023-01-28T06:14:34;17.30;47.30
27258;DHT22;62045;49.986;8.672;2023-01-28T06:20:06;17.50;47.00
27258;DHT22;62045;49.986;8.672;2023-01-28T06:25:08;17.50;46.70
27258;DHT22;62045;49.986;8.672;2023-01-28T06:30:09;17.50;46.70
27258;DHT22;62045;49.986;8.672;2023-01-28T06:35:11;17.50;46.80
27258;DHT22;62045;49.986;8.672;2023-01-28T06:40:12;17.30;46.90
27258;DHT22;62045;49.986;8.672;2023-01-28T06:45:13;17.20;47.10
27258;DHT22;62045;49.986;8.672;2023-01-28T06:50:16;17.10;47.30
27258;DHT22;62045;49.986;8.672;2023-01-28T06:55:17;16.90;47.50
27258;DHT22;62045;49.986;8.672;2023-01-28T07:00:18;16.90;47.70
27258;DHT22;62045;49.986;8.672;2023-01-28T07:05:21;17.10;47.60
27258;DHT22;62045;49.986;8.672;2023-01-28T07:10:21;17.40;47.90
27258;DHT22;62045;49.986;8.672;2023-01-28T07:15:22;17.50;46.80
27258;DHT22;62045;49.986;8.672;2023-01-28T07:20:24;17.60;46.60
27258;DHT22;62045;49.986;8.672;2023-01-28T07:25:25;17.60;46.60
27258;DHT22;62045;49.986;8.672;2023-01-28T07:30:25;17.50;46.70
27258;DHT22;62045;49.986;8.672;2023-01-28T07:35:28;17.40;46.80
27258;DHT22;62045;49.986;8.672;2023-01-28T07:40:28;17.20;47.00
27258;DHT22;62045;49.986;8.672;2023-01-28T07:45:29;17.10;47.30
27258;DHT22;62045;49.986;8.672;2023-01-28T07:50:33;17.00;47.50
27258;DHT22;62045;49.986;8.672;2023-01-28T07:55:34;17.00;47.80
27258;DHT22;62045;49.986;8.672;2023-01-28T08:00:36;17.10;47.70
27258;DHT22;62045;49.986;8.672;2023-01-28T08:05:42;17.30;47.20
27258;DHT22;62045;49.986;8.672;2023-01-28T08:10:44;17.50;46.50
27258;DHT22;62045;49.986;8.672;2023-01-28T08:15:45;17.60;45.80
27258;DHT22;62045;49.986;8.672;2023-01-28T08:20:47;17.60;45.50
27258;DHT22;62045;49.986;8.672;2023-01-28T08:25:48;17.60;45.30
27258;DHT22;62045;49.986;8.672;2023-01-28T08:30:49;17.50;45.20
27258;DHT22;62045;49.986;8.672;2023-01-28T08:35:51;17.40;45.10
27258;DHT22;62045;49.986;8.672;2023-01-28T08:40:51;17.30;44.90
27258;DHT22;62045;49.986;8.672;2023-01-28T08:45:55;17.20;45.40
27258;DHT22;62045;49.986;8.672;2023-01-28T08:50:58;17.20;46.10
27258;DHT22;62045;49.986;8.672;2023-01-28T08:55:59;17.10;46.30
27258;DHT22;62045;49.986;8.672;2023-01-28T09:01:03;17.00;46.30
27258;DHT22;62045;49.986;8.672;2023-01-28T09:06:07;17.00;46.60
27258;DHT22;62045;49.986;8.672;2023-01-28T09:11:08;17.00;46.70
27258;DHT22;62045;49.986;8.672;2023-01-28T09:16:09;17.00;46.80
27258;DHT22;62045;49.986;8.672;2023-01-28T09:21:12;17.10;46.70
27258;DHT22;62045;49.986;8.672;2023-01-28T09:26:13;17.20;46.60
27258;DHT22;62045;49.986;8.672;2023-01-28T09:31:13;17.20;46.40
27258;DHT22;62045;49.986;8.672;2023-01-28T09:36:16;17.20;46.50
27258;DHT22;62045;49.986;8.672;2023-01-28T09:41:24;17.10;46.50
27258;DHT22;62045;49.986;8.672;2023-01-28T09:46:30;17.00;46.70
27258;DHT22;62045;49.986;8.672;2023-01-28T09:51:35;16.90;46.80
27258;DHT22;62045;49.986;8.672;2023-01-28T09:56:41;16.90;47.00
27258;DHT22;62045;49.986;8.672;2023-01-28T10:01:46;17.00;47.10
27258;DHT22;62045;49.986;8.672;2023-01-28T10:07:00;17.10;46.80
27258;DHT22;62045;49.986;8.672;2023-01-28T10:12:15;17.30;46.70
27258;DHT22;62045;49.986;8.672;2023-01-28T10:17:24;17.30;46.50
27258;DHT22;62045;49.986;8.672;2023-01-28T10:22:30;17.30;46.50
27258;DHT22;62045;49.986;8.672;2023-01-28T10:27:33;17.20;46.60
27258;DHT22;62045;49.986;8.672;2023-01-28T10:32:40;17.10;46.60
27258;DHT22;62045;49.986;8.672;2023-01-28T10:37:44;17.00;46.80
27258;DHT22;62045;49.986;8.672;2023-01-28T10:42:45;16.90;46.90
27258;DHT22;62045;49.986;8.672;2023-01-28T10:47:50;16.90;47.00
27258;DHT22;62045;49.986;8.672;2023-01-28T10:52:55;17.00;47.20
27258;DHT22;62045;49.986;8.672;2023-01-28T10:57:56;17.20;47.10
27258;DHT22;62045;49.986;8.672;2023-01-28T11:02:58;17.30;46.80
27258;DHT22;62045;49.986;8.672;2023-01-28T11:08:05;17.40;46.60
27258;DHT22;62045;49.986;8.672;2023-01-28T11:13:14;17.40;46.60
27258;DHT22;62045;49.986;8.672;2023-01-28T11:18:18;17.40;46.80
27258;DHT22;62045;49.986;8.672;2023-01-28T11:23:24;17.30;46.90
27258;DHT22;62045;49.986;8.672;2023-01-28T11:28:26;17.20;47.10
27258;DHT22;62045;49.986;8.672;2023-01-28T11:33:31;17.10;47.30
27258;DHT22;62045;49.986;8.672;2023-01-28T11:38:34;17.10;47.40
27258;DHT22;62045;49.986;8.672;2023-01-28T11:43:35;17.30;47.30
27258;DHT22;62045;49.986;8.672;2023-01-28T11:48:40;17.40;47.00
27258;DHT22;62045;49.986;8.672;2023-01-28T11:53:56;17.50;46.80
27258;DHT22;62045;49.986;8.672;2023-01-28T11:59:10;17.50;46.70
27258;DHT22;62045;49.986;8.672;2023-01-28T12:04:32;17.50;46.80
27258;DHT22;62045;49.986;8.672;2023-01-28T12:09:45;17.40;47.00
27258;DHT22;62045;49.986;8.672;2023-01-28T15:16:15;16.10;47.20
27258;DHT22;62045;49.986;8.672;2023-01-28T15:21:19;16.00;47.10
27258;DHT22;62045;49.986;8.672;2023-01-28T15:26:22;15.90;47.00
27258;DHT22;62045;49.986;8.672;2023-01-28T15:31:26;15.80;46.80
27258;DHT22;62045;49.986;8.672;2023-01-28T15:36:28;15.70;46.80
27258;DHT22;62045;49.986;8.672;2023-01-28T15:41:32;15.60;46.10
27258;DHT22;62045;49.986;8.672;2023-01-28T15:46:38;15.60;45.70
27258;DHT22;62045;49.986;8.672;2023-01-28T15:51:39;15.50;45.20
27258;DHT22;62045;49.986;8.672;2023-01-28T15:56:40;15.50;45.00
27258;DHT22;62045;49.986;8.672;2023-01-28T16:01:42;15.40;44.90
27258;DHT22;62045;49.986;8.672;2023-01-28T16:06:43;15.40;45.10
27258;DHT22;62045;49.986;8.672;2023-01-28T16:11:44;15.30;44.90
27258;DHT22;62045;49.986;8.672;2023-01-28T16:16:47;15.30;45.50
27258;DHT22;62045;49.986;8.672;2023-01-28T16:21:48;15.20;45.90
27258;DHT22;62045;49.986;8.672;2023-01-28T16:26:55;15.20;46.10
27258;DHT22;62045;49.986;8.672;2023-01-28T16:31:58;15.20;46.10
27258;DHT22;62045;49.986;8.672;2023-01-28T16:36:59;15.10;45.40
27258;DHT22;62045;49.986;8.672;2023-01-28T16:42:00;15.10;47.60
27258;DHT22;62045;49.986;8.672;2023-01-28T16:47:04;15.20;48.70
27258;DHT22;62045;49.986;8.672;2023-01-28T16:52:05;15.20;48.50
27258;DHT22;62045;49.986;8.672;2023-01-28T16:57:07;15.30;50.70
27258;DHT22;62045;49.986;8.672;2023-01-28T17:02:10;15.30;50.30
27258;DHT22;62045;49.986;8.672;2023-01-28T17:07:11;15.20;50.20
27258;DHT22;62045;49.986;8.672;2023-01-28T17:12:12;15.20;50.90
27258;DHT22;62045;49.986;8.672;2023-01-28T17:17:14;15.20;51.00
27258;DHT22;62045;49.986;8.672;2023-01-28T17:22:15;15.10;50.70
27258;DHT22;62045;49.986;8.672;2023-01-28T17:27:15;15.10;50.60
27258;DHT22;62045;49.986;8.672;2023-01-28T17:32:17;15.10;50.60
27258;DHT22;62045;49.986;8.672;2023-01-28T17:37:18;15.00;50.50
27258;DHT22;62045;49.986;8.672;2023-01-28T17:42:19;15.00;50.50
27258;DHT22;62045;49.986;8.672;2023-01-28T17:47:21;15.00;50.40
27258;DHT22;62045;49.986;8.672;2023-01-28T17:52:22;15.00;50.40
27258;DHT22;62045;49.986;8.672;2023-01-28T17:57:22;15.00;50.40
27258;DHT22;62045;49.986;8.672;2023-01-28T18:02:25;15.00;50.70
27258;DHT22;62045;49.986;8.672;2023-01-28T18:07:25;15.10;51.60
27258;DHT22;62045;49.986;8.672;2023-01-28T18:12:26;15.10;51.50
27258;DHT22;62045;49.986;8.672;2023-01-28T18:17:28;15.10;51.70
27258;DHT22;62045;49.986;8.672;2023-01-28T18:22:29;15.10;51.70
27258;DHT22;62045;49.986;8.672;2023-01-28T18:27:29;15.00;52.00
27258;DHT22;62045;49.986;8.672;2023-01-28T18:32:32;15.00;52.00
27258;DHT22;62045;49.986;8.672;2023-01-28T18:37:33;14.90;52.40
27258;DHT22;62045;49.986;8.672;2023-01-28T18:42:34;14.90;52.20
27258;DHT22;62045;49.986;8.672;2023-01-28T18:47:36;14.90;52.20
27258;DHT22;62045;49.986;8.672;2023-01-28T18:52:37;14.80;52.20
27258;DHT22;62045;49.986;8.672;2023-01-28T18:57:37;14.80;52.20
27258;DHT22;62045;49.986;8.672;2023-01-28T19:02:39;14.80;52.20
27258;DHT22;62045;49.986;8.672;2023-01-28T19:07:40;14.70;52.10
27258;DHT22;62045;49.986;8.672;2023-01-28T19:12:41;14.70;52.30
27258;DHT22;62045;49.986;8.672;2023-01-28T19:17:43;14.70;52.30
27258;DHT22;62045;49.986;8.672;2023-01-28T19:22:44;14.80;52.20
27258;DHT22;62045;49.986;8.672;2023-01-28T19:27:45;14.80;52.00
27258;DHT22;62045;49.986;8.672;2023-01-28T19:32:47;14.80;51.90
27258;DHT22;62045;49.986;8.672;2023-01-28T19:37:48;14.80;51.90
27258;DHT22;62045;49.986;8.672;2023-01-28T19:42:51;14.70;51.90
27258;DHT22;62045;49.986;8.672;2023-01-28T19:47:53;14.70;51.90
27258;DHT22;62045;49.986;8.672;2023-01-28T19:52:54;14.60;52.10
27258;DHT22;62045;49.986;8.672;2023-01-28T19:57:55;14.60;52.10
27258;DHT22;62045;49.986;8.672;2023-01-28T20:02:57;14.60;52.10
27258;DHT22;62045;49.986;8.672;2023-01-28T20:07:57;14.60;52.10
27258;DHT22;62045;49.986;8.672;2023-01-28T20:12:58;14.50;52.00
27258;DHT22;62045;49.986;8.672;2023-01-28T20:18:00;14.50;52.20
27258;DHT22;62045;49.986;8.672;2023-01-28T20:23:01;14.50;52.20
27258;DHT22;62045;49.986;8.672;2023-01-28T20:28:01;14.60;52.10
27258;DHT22;62045;49.986;8.672;2023-01-28T20:33:03;14.70;51.90
27258;DHT22;62045;49.986;8.672;2023-01-28T20:38:04;14.70;51.70
27258;DHT22;62045;49.986;8.672;2023-01-28T20:43:05;14.70;51.60
27258;DHT22;62045;49.986;8.672;2023-01-28T20:48:07;14.70;51.60
27258;DHT22;62045;49.986;8.672;2023-01-28T20:53:08;14.70;51.70
27258;DHT22;62045;49.986;8.672;2023-01-28T20:58:09;14.60;51.70
27258;DHT22;62045;49.986;8.672;2023-01-28T21:03:11;14.60;51.70
27258;DHT22;62045;49.986;8.672;2023-01-28T21:08:11;14.50;51.90
27258;DHT22;62045;49.986;8.672;2023-01-28T21:13:13;14.50;51.80
27258;DHT22;62045;49.986;8.672;2023-01-28T21:18:16;14.50;51.80
27258;DHT22;62045;49.986;8.672;2023-01-28T21:23:16;14.50;51.90
27258;DHT22;62045;49.986;8.672;2023-01-28T21:28:18;14.50;51.90
27258;DHT22;62045;49.986;8.672;2023-01-28T21:33:20;14.50;51.90
27258;DHT22;62045;49.986;8.672;2023-01-28T21:38:21;14.50;51.90
27258;DHT22;62045;49.986;8.672;2023-01-28T21:43:22;14.50;51.80
27258;DHT22;62045;49.986;8.672;2023-01-28T21:48:24;14.50;51.80
27258;DHT22;62045;49.986;8.672;2023-01-28T21:53:25;14.50;51.80
27258;DHT22;62045;49.986;8.672;2023-01-28T21:58:26;14.40;51.80
27258;DHT22;62045;49.986;8.672;2023-01-28T22:03:30;14.40;52.00
27258;DHT22;62045;49.986;8.672;2023-01-28T22:08:31;14.40;52.10
27258;DHT22;62045;49.986;8.672;2023-01-28T22:13:32;14.40;52.10
27258;DHT22;62045;49.986;8.672;2023-01-28T22:18:34;14.30;52.00
27258;DHT22;62045;49.986;8.672;2023-01-28T22:23:34;14.30;52.10
27258;DHT22;62045;49.986;8.672;2023-01-28T22:28:35;14.30;52.30
27258;DHT22;62045;49.986;8.672;2023-01-28T22:33:38;14.30;52.50
27258;DHT22;62045;49.986;8.672;2023-01-28T22:38:40;14.30;52.70
27258;DHT22;62045;49.986;8.672;2023-01-28T22:43:41;14.30;52.80
27258;DHT22;62045;49.986;8.672;2023-01-28T22:48:43;14.40;52.70
27258;DHT22;62045;49.986;8.672;2023-01-28T22:53:45;14.40;52.60
27258;DHT22;62045;49.986;8.672;2023-01-28T22:58:46;14.40;52.50
27258;DHT22;62045;49.986;8.672;2023-01-28T23:03:49;14.30;52.50
27258;DHT22;62045;49.986;8.672;2023-01-28T23:08:50;14.30;52.40
27258;DHT22;62045;49.986;8.672;2023-01-28T23:13:51;14.30;52.50
27258;DHT22;62045;49.986;8.672;2023-01-28T23:18:53;14.20;52.70
27258;DHT22;62045;49.986;8.672;2023-01-28T23:23:53;14.20;52.70
27258;DHT22;62045;49.986;8.672;2023-01-28T23:28:54;14.20;52.80
27258;DHT22;62045;49.986;8.672;2023-01-28T23:33:56;14.20;52.80
27258;DHT22;62045;49.986;8.672;2023-01-28T23:38:57;14.30;52.60
27258;DHT22;62045;49.986;8.672;2023-01-28T23:43:58;14.40;52.50
27258;DHT22;62045;49.986;8.672;2023-01-28T23:49:00;14.40;52.30
27258;DHT22;62045;49.986;8.672;2023-01-28T23:54:00;14.40;52.20
27258;DHT22;62045;49.986;8.672;2023-01-28T23:59:01;14.40;52.20
